createdAt,value
2022-09-09T00:02:22.608Z,102032.41
2022-09-09T00:05:01.350Z,101993.53
2022-09-09T00:07:42.147Z,102041.28
2022-09-09T00:10:20.270Z,102075.84
2022-09-09T00:12:57.508Z,102077.91
2022-09-09T00:15:29.811Z,102077.28
2022-09-09T00:18:05.698Z,102072.38
2022-09-09T00:20:42.806Z,102077.97
2022-09-09T00:23:16.617Z,102070.38
2022-09-09T00:25:52.550Z,102022.22
2022-09-09T00:28:22.325Z,102065.59
2022-09-09T00:30:50.359Z,102070.22
2022-09-09T00:33:22.448Z,102076.56
2022-09-09T00:35:55.386Z,102016.69
2022-09-09T00:38:30.411Z,102032.09
2022-09-09T00:41:03.804Z,102066.66
2022-09-09T00:43:33.237Z,102030.13
2022-09-09T00:46:22.187Z,102038.38
2022-09-09T00:48:59.566Z,102057.47
2022-09-09T00:51:38.869Z,102059.44
2022-09-09T00:54:20.901Z,102014.88
2022-09-09T00:56:59.234Z,102035.72
2022-09-09T00:59:37.772Z,102001.13
2022-09-09T01:02:15.888Z,102026.38
2022-09-09T01:04:45.612Z,102051.63
2022-09-09T01:07:19.166Z,102037.75
2022-09-09T01:09:59.323Z,101985.78
2022-09-09T01:12:37.768Z,102016.53
2022-09-09T01:15:13.047Z,102023.84
2022-09-09T01:17:50.963Z,102040.22
2022-09-09T01:20:23.641Z,102036.81
2022-09-09T01:23:06.769Z,102009.16
2022-09-09T01:26:15.709Z,102016.69
2022-09-09T01:28:46.934Z,101969.16
2022-09-09T01:31:19.873Z,102027.56
2022-09-09T01:33:48.227Z,102007.00
2022-09-09T01:36:24.173Z,102032.06
2022-09-09T01:38:52.108Z,102027.81
2022-09-09T01:41:21.730Z,102030.50
2022-09-09T01:43:50.478Z,101960.84
2022-09-09T01:46:19.522Z,102023.69
2022-09-09T01:48:47.781Z,102004.91
2022-09-09T01:51:15.721Z,102030.84
2022-09-09T01:53:45.625Z,102025.59
2022-09-09T01:56:27.947Z,102031.75
2022-09-09T01:59:08.676Z,102024.81
2022-09-09T02:01:53.182Z,101960.50
2022-09-09T02:04:33.781Z,102017.03
2022-09-09T02:07:02.657Z,101950.88
2022-09-09T02:09:32.724Z,101958.94
2022-09-09T02:12:08.548Z,102007.47
2022-09-09T02:14:41.769Z,101924.09
2022-09-09T02:17:12.121Z,102001.34
2022-09-09T02:19:46.354Z,102002.31
2022-09-09T02:22:14.533Z,101984.50
2022-09-09T02:24:43.161Z,101986.41
2022-09-09T02:27:13.374Z,101975.66
2022-09-09T02:29:43.773Z,101985.84
2022-09-09T02:32:16.883Z,101993.81
2022-09-09T02:34:50.071Z,101989.50
2022-09-09T02:37:21.077Z,101977.78
2022-09-09T02:39:49.158Z,101989.66
2022-09-09T02:42:20.222Z,101989.78
2022-09-09T02:44:48.281Z,101990.69
2022-09-09T02:47:29.801Z,101984.56
2022-09-09T02:50:08.146Z,101983.72
2022-09-09T02:52:46.190Z,101956.97
2022-09-09T02:55:22.483Z,101982.94
2022-09-09T02:57:53.926Z,101965.97
2022-09-09T03:00:26.549Z,101980.44
2022-09-09T03:02:55.705Z,101971.69
2022-09-09T03:05:23.709Z,101972.66
2022-09-09T03:07:51.626Z,101971.81
2022-09-09T03:10:20.506Z,101970.97
2022-09-09T03:12:48.322Z,101973.66
2022-09-09T03:15:17.881Z,101963.06
2022-09-09T03:17:46.095Z,101888.91
2022-09-09T03:20:13.966Z,101961.44
2022-09-09T03:22:43.083Z,101941.84
2022-09-09T03:25:11.261Z,101958.81
2022-09-09T03:27:39.074Z,101953.50
2022-09-09T03:30:08.064Z,101930.22
2022-09-09T03:32:37.808Z,101880.00
2022-09-09T03:35:06.349Z,101912.22
2022-09-09T03:37:34.156Z,101899.50
2022-09-09T03:40:02.200Z,101941.78
2022-09-09T03:42:31.038Z,101946.16
2022-09-09T03:45:00.418Z,101940.88
2022-09-09T03:47:28.588Z,101946.97
2022-09-09T03:49:57.869Z,101862.78
2022-09-09T03:52:27.408Z,101851.09
2022-09-09T03:54:57.769Z,101917.47
2022-09-09T03:57:25.598Z,101910.19
2022-09-09T03:59:53.419Z,101941.78
2022-09-09T04:02:22.622Z,101933.88
2022-09-09T04:04:50.507Z,101940.94
2022-09-09T04:07:19.673Z,101936.63
2022-09-09T04:09:47.639Z,101908.31
2022-09-09T04:12:15.469Z,101895.78
2022-09-09T04:14:43.295Z,101935.28
2022-09-09T04:17:11.485Z,101921.03
2022-09-09T04:19:39.320Z,101935.47
2022-09-09T04:22:07.165Z,101930.31
2022-09-09T04:24:36.965Z,101934.84
2022-09-09T04:27:05.005Z,101859.63
2022-09-09T04:29:32.831Z,101937.63
2022-09-09T04:32:00.906Z,101910.06
2022-09-09T04:34:29.417Z,101918.25
2022-09-09T04:36:57.974Z,101934.34
2022-09-09T04:39:26.145Z,101937.94
2022-09-09T04:41:55.293Z,101935.34
2022-09-09T04:44:23.131Z,101936.25
2022-09-09T04:46:51.143Z,101937.16
2022-09-09T04:49:18.950Z,101917.50
2022-09-09T04:51:48.038Z,101891.59
2022-09-09T04:54:16.504Z,101936.41
2022-09-09T04:56:44.440Z,101937.31
2022-09-09T04:59:13.593Z,101935.63
2022-09-09T05:01:41.978Z,101940.03
2022-09-09T05:04:10.010Z,101946.25
2022-09-09T05:06:38.324Z,101935.78
2022-09-09T05:09:06.358Z,101942.88
2022-09-09T05:11:37.036Z,101939.50
2022-09-09T05:14:04.974Z,101940.44
2022-09-09T05:16:34.699Z,101937.97
2022-09-09T05:19:04.261Z,101939.81
2022-09-09T05:21:32.478Z,101931.91
2022-09-09T05:24:01.697Z,101933.94
2022-09-09T05:26:30.460Z,101603.81
2022-09-09T05:29:00.096Z,101942.16
2022-09-09T05:31:29.540Z,101946.78
2022-09-09T05:34:00.000Z,101881.78
2022-09-09T05:36:27.865Z,101897.09
2022-09-09T05:38:55.901Z,101923.22
2022-09-09T05:41:24.118Z,101952.75
2022-09-09T05:43:52.027Z,101948.44
2022-09-09T05:46:21.698Z,101958.88
2022-09-09T05:48:51.699Z,101911.50
2022-09-09T05:51:23.160Z,101957.06
2022-09-09T05:53:51.998Z,101920.25
2022-09-09T05:56:22.888Z,101959.59
2022-09-09T05:58:52.892Z,101927.50
2022-09-09T06:01:22.320Z,101960.50
2022-09-09T06:03:51.796Z,101921.09
2022-09-09T06:06:22.999Z,101918.56
2022-09-09T06:08:53.975Z,101940.25
2022-09-09T06:11:23.969Z,101957.44
2022-09-09T06:13:54.877Z,101954.03
2022-09-09T06:16:25.288Z,101952.38
2022-09-09T06:18:55.292Z,101956.81
2022-09-09T06:21:25.947Z,101963.84
2022-09-09T06:23:56.737Z,101964.69
2022-09-09T06:26:29.570Z,101966.47
2022-09-09T06:28:58.990Z,101951.50
2022-09-09T06:31:31.621Z,101962.00
2022-09-09T06:34:00.971Z,101957.56
2022-09-09T06:36:32.313Z,101897.59
2022-09-09T06:39:00.856Z,101956.63
2022-09-09T06:41:31.212Z,101962.09
2022-09-09T06:43:59.501Z,101923.19
2022-09-09T06:46:29.395Z,101954.00
2022-09-09T06:48:58.488Z,101952.88
2022-09-09T06:51:28.332Z,101949.94
2022-09-09T06:53:59.510Z,101960.72
2022-09-09T06:56:29.311Z,101958.88
2022-09-09T06:58:59.494Z,101943.31
2022-09-09T07:01:29.225Z,101927.56
2022-09-09T07:03:59.869Z,101963.75
2022-09-09T07:06:29.100Z,101969.94
2022-09-09T07:09:00.092Z,101967.13
2022-09-09T07:11:29.889Z,101965.75
2022-09-09T07:14:00.006Z,101949.53
2022-09-09T07:16:30.541Z,101934.38
2022-09-09T07:18:58.899Z,101964.25
2022-09-09T07:21:28.437Z,101947.91
2022-09-09T07:23:58.483Z,101918.13
2022-09-09T07:26:28.236Z,101960.75
2022-09-09T07:28:58.196Z,101954.00
2022-09-09T07:31:28.895Z,101960.81
2022-09-09T07:33:56.760Z,101968.22
2022-09-09T07:36:31.234Z,101965.50
2022-09-09T07:39:04.263Z,101958.31
2022-09-09T07:41:35.383Z,101967.28
2022-09-09T07:44:07.706Z,101927.69
2022-09-09T07:46:36.357Z,101954.09
2022-09-09T07:49:04.752Z,101951.03
2022-09-09T07:51:35.158Z,101952.41
2022-09-09T07:54:06.592Z,101941.16
2022-09-09T07:56:34.936Z,101962.72
2022-09-09T07:59:05.279Z,101962.72
2022-09-09T08:01:38.323Z,101950.75
2022-09-09T08:04:08.299Z,101953.41
2022-09-09T08:06:38.908Z,101974.66
2022-09-09T08:09:10.219Z,101971.44
2022-09-09T08:11:39.549Z,101973.63
2022-09-09T08:14:08.442Z,101953.19
2022-09-09T08:16:38.632Z,101973.34
2022-09-09T08:19:08.468Z,101978.88
2022-09-09T08:21:39.396Z,101994.13
2022-09-09T08:24:12.738Z,101983.88
2022-09-09T08:26:42.703Z,101979.84
2022-09-09T08:29:12.601Z,101994.97
2022-09-09T08:31:43.648Z,101847.97
2022-09-09T08:34:11.849Z,101989.16
2022-09-09T08:36:41.761Z,101993.03
2022-09-09T08:39:12.861Z,101982.28
2022-09-09T08:42:02.345Z,101982.41
2022-09-09T08:44:45.570Z,101982.34
2022-09-09T08:47:34.081Z,101985.38
2022-09-09T08:50:18.705Z,101999.25
2022-09-09T08:52:54.801Z,101941.81
2022-09-09T08:55:29.986Z,101982.69
2022-09-09T08:58:02.031Z,101982.53
2022-09-09T09:00:37.748Z,101979.78
2022-09-09T09:03:13.835Z,101988.59
2022-09-09T09:05:50.109Z,101975.47
2022-09-09T09:08:29.740Z,101981.69
2022-09-09T09:11:01.532Z,101913.41
2022-09-09T09:13:40.472Z,101788.00
2022-09-09T09:16:21.598Z,101980.22
2022-09-09T09:18:49.541Z,101979.69
2022-09-09T09:21:22.745Z,101970.75
2022-09-09T09:23:58.047Z,101985.56
2022-09-09T09:26:34.203Z,101981.50
2022-09-09T09:29:10.570Z,101977.63
2022-09-09T09:31:38.698Z,101993.28
2022-09-09T09:34:06.877Z,101794.13
2022-09-09T09:36:43.626Z,101979.06
2022-09-09T09:42:11.950Z,101973.88
2022-09-09T09:44:40.006Z,101977.44
2022-09-09T09:47:10.318Z,101972.06
2022-09-09T09:49:38.520Z,101965.81
2022-09-09T09:52:07.627Z,101967.59
2022-09-09T09:54:39.881Z,101968.66
2022-09-09T09:57:17.176Z,101967.78
2022-09-09T09:59:45.623Z,101911.03
2022-09-09T10:02:19.235Z,101869.09
2022-09-09T10:04:47.878Z,101952.22
2022-09-09T10:07:21.109Z,101947.75
2022-09-09T10:09:55.355Z,101956.91
2022-09-09T10:12:37.217Z,101956.03
2022-09-09T10:15:17.071Z,101944.19
2022-09-09T10:17:56.324Z,101877.25
2022-09-09T10:20:36.937Z,101924.66
2022-09-09T10:23:19.087Z,101943.63
2022-09-09T10:26:02.333Z,101950.97
2022-09-09T10:28:56.605Z,101948.44
2022-09-09T10:31:32.109Z,101946.47
2022-09-09T10:34:09.095Z,101937.13
2022-09-09T10:36:45.112Z,101942.56
2022-09-09T10:39:27.986Z,101954.13
2022-09-09T10:42:06.205Z,101888.25
2022-09-09T10:44:57.765Z,101936.16
2022-09-09T10:47:50.582Z,101948.69
2022-09-09T10:51:00.011Z,101947.00
2022-09-09T10:53:34.743Z,101929.16
2022-09-09T10:56:08.648Z,101926.31
2022-09-09T10:58:43.863Z,101963.66
2022-09-09T11:01:19.587Z,101953.84
2022-09-09T11:03:54.128Z,101939.72
2022-09-09T11:06:26.563Z,101930.91
2022-09-09T11:08:57.048Z,101926.53
2022-09-09T11:11:32.033Z,101914.94
2022-09-09T11:14:04.647Z,101927.22
2022-09-09T11:16:42.926Z,101921.81
2022-09-09T11:19:19.160Z,101817.06
2022-09-09T11:21:48.708Z,101925.53
2022-09-09T11:24:20.691Z,101915.75
2022-09-09T11:26:53.634Z,101888.16
2022-09-09T11:29:48.813Z,101938.75
2022-09-09T11:32:35.264Z,101930.75
2022-09-09T11:35:19.788Z,101919.03
2022-09-09T11:38:06.110Z,101916.94
2022-09-09T11:40:36.137Z,101811.91
2022-09-09T11:43:07.041Z,101906.81
2022-09-09T11:45:37.788Z,101916.13
2022-09-09T11:48:08.046Z,101915.84
2022-09-09T11:50:37.778Z,101905.75
2022-09-09T11:53:25.368Z,101903.19
2022-09-09T11:56:08.177Z,101907.59
2022-09-09T11:58:41.936Z,101910.19
2022-09-09T12:01:32.140Z,101907.31
2022-09-09T12:04:33.325Z,101898.44
2022-09-09T12:07:04.789Z,101918.28
2022-09-09T12:09:41.285Z,101884.59
2022-09-09T12:12:24.234Z,101901.13
2022-09-09T12:15:01.891Z,101902.41
2022-09-09T12:17:32.505Z,101898.13
2022-09-09T12:20:11.067Z,101893.22
2022-09-09T12:22:55.761Z,101900.03
2022-09-09T12:25:32.962Z,101907.53
2022-09-09T12:28:08.912Z,101884.19
2022-09-09T12:30:43.332Z,101898.56
2022-09-09T12:33:15.086Z,101901.16
2022-09-09T12:35:48.448Z,101906.44
2022-09-09T12:38:20.834Z,101904.72
2022-09-09T12:40:58.325Z,101894.47
2022-09-09T12:43:28.511Z,101889.00
2022-09-09T12:46:01.759Z,101863.88
2022-09-09T12:48:36.027Z,101858.97
2022-09-09T12:51:23.314Z,101887.84
2022-09-09T12:53:51.451Z,101883.34
2022-09-09T12:56:27.492Z,101882.50
2022-09-09T12:58:57.596Z,101866.63
2022-09-09T13:01:27.985Z,101874.78
2022-09-09T13:03:56.790Z,101878.00
2022-09-09T13:06:29.258Z,101868.44
2022-09-09T13:09:00.004Z,101883.34
2022-09-09T13:11:31.887Z,101861.25
2022-09-09T13:14:01.501Z,101882.13
2022-09-09T13:16:33.864Z,101891.59
2022-09-09T13:19:09.631Z,101884.81
2022-09-09T13:21:41.552Z,101883.69
2022-09-09T13:24:30.506Z,101853.06
2022-09-09T13:26:59.715Z,101866.75
2022-09-09T13:29:27.665Z,101867.75
2022-09-09T13:31:56.724Z,101864.41
2022-09-09T13:34:32.562Z,101862.13
2022-09-09T13:37:04.545Z,101857.59
2022-09-09T13:39:32.645Z,101870.06
2022-09-09T13:42:00.655Z,101857.28
2022-09-09T13:44:30.824Z,101863.81
2022-09-09T13:47:08.139Z,101857.47
2022-09-09T13:49:38.296Z,101862.31
2022-09-09T13:52:12.632Z,101865.53
2022-09-09T13:54:40.731Z,101860.91
2022-09-09T13:57:17.493Z,101862.03
2022-09-09T14:00:03.600Z,101850.81
2022-09-09T14:02:32.763Z,101854.13
2022-09-09T14:05:00.651Z,101868.13
2022-09-09T14:07:30.051Z,101869.19
2022-09-09T14:09:58.311Z,101862.91
2022-09-09T14:12:26.431Z,101858.44
2022-09-09T14:14:54.289Z,101861.81
2022-09-09T14:17:23.343Z,101857.44
2022-09-09T14:19:51.581Z,101857.06
2022-09-09T14:22:19.523Z,101853.97
2022-09-09T14:24:49.261Z,101856.06
2022-09-09T14:27:19.715Z,101860.50
2022-09-09T14:29:47.535Z,101857.63
2022-09-09T14:32:15.645Z,101863.84
2022-09-09T14:34:43.505Z,101866.91
2022-09-09T14:37:11.330Z,101859.06
2022-09-09T14:39:39.358Z,101853.38
2022-09-09T14:42:12.062Z,101834.19
2022-09-09T14:44:40.366Z,101849.56
2022-09-09T14:47:09.021Z,101849.56
2022-09-09T14:49:37.429Z,101854.31
2022-09-09T14:52:06.666Z,101845.47
2022-09-09T14:54:34.587Z,101848.94
2022-09-09T14:57:02.410Z,101833.47
2022-09-09T14:59:31.853Z,101837.97
2022-09-09T15:02:01.741Z,101828.88
2022-09-09T15:04:29.713Z,101828.84
2022-09-09T15:06:57.688Z,101830.72
2022-09-09T15:09:25.494Z,101837.41
2022-09-09T15:11:53.339Z,101842.00
2022-09-09T15:14:22.585Z,101844.09
2022-09-09T15:16:54.598Z,101848.97
2022-09-09T15:19:22.610Z,101794.41
2022-09-09T15:21:50.514Z,101841.66
2022-09-09T15:24:18.331Z,101843.69
2022-09-09T15:26:46.503Z,101852.72
2022-09-09T15:29:14.656Z,101849.03
2022-09-09T15:31:42.445Z,101856.66
2022-09-09T15:34:12.237Z,101842.84
2022-09-09T15:36:41.533Z,101839.66
2022-09-09T15:39:13.826Z,101847.28
2022-09-09T15:41:41.880Z,101850.50
2022-09-09T15:44:11.333Z,101847.47
2022-09-09T15:46:41.528Z,101804.03
2022-09-09T15:49:12.283Z,101853.63
2022-09-09T15:51:43.697Z,101786.44
2022-09-09T15:54:14.332Z,101853.97
2022-09-09T15:56:43.069Z,101858.25
2022-09-09T15:59:12.383Z,101858.88
2022-09-09T16:01:41.923Z,101841.69
2022-09-09T16:04:11.549Z,101854.75
2022-09-09T16:06:40.102Z,101820.56
2022-09-09T16:09:11.303Z,101819.47
2022-09-09T16:11:39.983Z,101848.81
2022-09-09T16:14:08.475Z,101847.59
2022-09-09T16:16:37.672Z,101853.72
2022-09-09T16:19:08.105Z,101721.53
2022-09-09T16:21:40.758Z,101818.16
2022-09-09T16:24:10.920Z,101830.78
2022-09-09T16:26:40.785Z,101848.47
2022-09-09T16:29:09.869Z,101839.56
2022-09-09T16:31:38.636Z,101845.75
2022-09-09T16:34:06.745Z,101842.28
2022-09-09T16:36:38.049Z,101847.56
2022-09-09T16:39:07.713Z,101838.75
2022-09-09T16:41:35.849Z,101848.38
2022-09-09T16:44:05.635Z,101845.47
2022-09-09T16:46:36.531Z,101801.56
2022-09-09T16:49:06.502Z,101844.16
2022-09-09T16:51:35.991Z,101795.63
2022-09-09T16:54:08.310Z,101852.44
2022-09-09T16:56:38.958Z,101853.13
2022-09-09T16:59:08.793Z,101851.13
2022-09-09T17:01:39.136Z,101848.25
2022-09-09T17:04:10.136Z,101840.88
2022-09-09T17:06:39.246Z,101843.31
2022-09-09T17:09:10.845Z,101842.22
2022-09-09T17:11:39.756Z,101839.38
2022-09-09T17:14:10.458Z,101840.06
2022-09-09T17:16:40.603Z,101834.63
2022-09-09T17:19:10.457Z,101840.59
2022-09-09T17:21:54.629Z,101847.50
2022-09-09T17:24:30.156Z,101839.41
2022-09-09T17:26:58.915Z,101845.41
2022-09-09T17:29:26.814Z,101848.72
2022-09-09T17:31:55.202Z,101827.19
2022-09-09T17:34:23.872Z,101827.03
2022-09-09T17:36:51.825Z,101842.06
2022-09-09T17:39:19.781Z,101849.75
2022-09-09T17:41:49.697Z,101850.41
2022-09-09T17:44:18.017Z,101834.19
2022-09-09T17:46:46.370Z,101800.03
2022-09-09T17:49:16.894Z,101849.91
2022-09-09T17:51:46.329Z,101841.69
2022-09-09T17:54:16.440Z,101860.06
2022-09-09T17:56:45.172Z,101766.00
2022-09-09T17:59:17.638Z,101852.78
2022-09-09T18:01:47.249Z,101862.38
2022-09-09T18:04:17.000Z,101857.84
2022-09-09T18:06:47.963Z,101858.66
2022-09-09T18:09:18.206Z,101814.88
2022-09-09T18:11:49.329Z,101850.44
2022-09-09T18:14:21.711Z,101853.78
2022-09-09T18:16:50.287Z,101808.19
2022-09-09T18:19:20.608Z,101849.00
2022-09-09T18:21:49.323Z,101855.06
2022-09-09T18:24:19.370Z,101863.66
2022-09-09T18:26:48.215Z,101843.22
2022-09-09T18:29:20.247Z,101858.28
2022-09-09T18:31:48.357Z,101844.97
2022-09-09T18:34:18.217Z,101850.09
2022-09-09T18:36:48.086Z,101855.16
2022-09-09T18:39:17.696Z,101854.09
2022-09-09T18:41:47.589Z,101803.75
2022-09-09T18:44:20.832Z,101828.94
2022-09-09T18:46:50.158Z,101848.63
2022-09-09T18:49:18.009Z,101835.03
2022-09-09T18:51:47.011Z,101799.84
2022-09-09T18:54:16.622Z,101845.56
2022-09-09T18:56:45.209Z,101847.13
2022-09-09T18:59:16.104Z,101849.56
2022-09-09T19:01:45.740Z,101832.44
2022-09-09T19:04:13.845Z,101846.53
2022-09-09T19:06:43.789Z,101814.41
2022-09-09T19:09:12.452Z,101847.53
2022-09-09T19:11:41.241Z,101849.28
2022-09-09T19:14:12.400Z,101848.22
2022-09-09T19:16:41.569Z,101839.09
2022-09-09T19:19:14.645Z,101852.41
2022-09-09T19:21:44.908Z,101849.69
2022-09-09T19:24:16.286Z,101840.94
2022-09-09T19:26:46.714Z,101840.94
2022-09-09T19:29:16.342Z,101845.25
2022-09-09T19:32:09.475Z,101843.41
2022-09-09T19:34:35.093Z,101837.97
2022-09-09T19:37:03.037Z,101753.50
2022-09-09T19:39:32.120Z,101836.03
2022-09-09T19:41:59.985Z,101842.25
2022-09-09T19:44:27.997Z,101836.13
2022-09-09T19:46:55.967Z,101794.97
2022-09-09T19:49:24.101Z,101828.69
2022-09-09T19:51:55.292Z,101837.72
2022-09-09T19:54:23.105Z,101813.38
2022-09-09T19:56:50.943Z,101829.31
2022-09-09T19:59:19.027Z,101840.06
2022-09-09T20:01:47.036Z,101840.06
2022-09-09T20:04:17.339Z,101803.22
2022-09-09T20:06:46.234Z,101806.81
2022-09-09T20:09:17.528Z,101799.53
2022-09-09T20:11:47.508Z,101834.50
2022-09-09T20:14:16.191Z,101839.94
2022-09-09T20:16:45.767Z,101843.34
2022-09-09T20:19:16.252Z,101843.28
2022-09-09T20:21:47.880Z,101830.66
2022-09-09T20:24:19.805Z,101799.06
2022-09-09T20:26:49.016Z,101843.63
2022-09-09T20:29:19.115Z,101842.72
2022-09-09T20:31:48.147Z,101825.59
2022-09-09T20:34:18.609Z,101841.59
2022-09-09T20:36:48.504Z,101828.94
2022-09-09T20:39:20.108Z,101840.56
2022-09-09T20:41:48.307Z,101840.47
2022-09-09T20:44:18.434Z,101849.91
2022-09-09T20:46:49.061Z,101847.22
2022-09-09T20:49:18.418Z,101840.88
2022-09-09T20:51:47.708Z,101821.09
2022-09-09T20:54:19.719Z,101825.38
2022-09-09T20:56:49.745Z,101839.41
2022-09-09T20:59:19.822Z,101827.72
2022-09-09T21:01:48.798Z,101846.47
2022-09-09T21:04:18.700Z,101838.56
2022-09-09T21:06:47.307Z,101834.09
2022-09-09T21:09:15.681Z,101845.63
2022-09-09T21:11:45.047Z,101845.63
2022-09-09T21:14:13.142Z,101846.47
2022-09-09T21:16:41.124Z,101840.25
2022-09-09T21:19:09.544Z,101849.03
2022-09-09T21:21:37.438Z,101845.38
2022-09-09T21:24:06.050Z,101842.63
2022-09-09T21:26:35.578Z,101812.16
2022-09-09T21:29:04.885Z,101822.84
2022-09-09T21:31:33.505Z,101811.91
2022-09-09T21:34:01.661Z,101841.19
2022-09-09T21:36:29.603Z,101838.44
2022-09-09T21:38:59.359Z,101804.19
2022-09-09T21:41:27.409Z,101833.75
2022-09-09T21:43:56.469Z,101827.38
2022-09-09T21:46:28.256Z,101833.56
2022-09-09T21:48:57.165Z,101797.69
2022-09-09T21:51:25.588Z,101821.75
2022-09-09T21:53:56.674Z,101830.63
2022-09-09T21:56:25.678Z,101833.97
2022-09-09T21:58:56.913Z,101832.00
2022-09-09T22:01:27.219Z,101832.56
2022-09-09T22:03:55.145Z,101808.03
2022-09-09T22:06:22.961Z,101823.03
2022-09-09T22:08:51.058Z,101836.47
2022-09-09T22:11:21.388Z,101832.00
2022-09-09T22:13:49.527Z,101837.22
2022-09-09T22:16:20.191Z,101826.75
2022-09-09T22:18:53.560Z,101821.22
2022-09-09T22:21:22.157Z,101809.59
2022-09-09T22:23:54.209Z,101822.13
2022-09-09T22:26:22.552Z,101648.25
2022-09-09T22:28:50.937Z,101823.66
2022-09-09T22:31:18.928Z,101788.44
2022-09-09T22:33:46.887Z,101826.03
2022-09-09T22:36:16.182Z,101831.34
2022-09-09T22:38:43.970Z,101834.91
2022-09-09T22:41:12.217Z,101829.59
2022-09-09T22:43:43.666Z,101805.41
2022-09-09T22:46:12.445Z,101789.06
2022-09-09T22:48:43.661Z,101822.56
2022-09-09T22:51:16.626Z,101826.09
2022-09-09T22:53:46.878Z,101818.97
2022-09-09T22:56:19.289Z,101814.31
2022-09-09T22:58:56.933Z,101817.25
2022-09-09T23:01:26.850Z,101818.91
2022-09-09T23:03:55.707Z,101794.66
2022-09-09T23:06:25.416Z,101800.66
2022-09-09T23:08:56.921Z,101813.13
2022-09-09T23:11:28.093Z,101816.47
2022-09-09T23:14:00.294Z,101790.78
2022-09-09T23:16:29.590Z,101781.59
2022-09-09T23:18:57.497Z,101789.00
2022-09-09T23:21:26.387Z,101789.91
2022-09-09T23:23:57.554Z,101774.16
2022-09-09T23:26:26.647Z,101794.06
2022-09-09T23:28:58.474Z,101756.56
2022-09-09T23:31:27.828Z,101798.88
2022-09-09T23:33:58.122Z,101754.28
2022-09-09T23:36:26.702Z,101793.84
2022-09-09T23:38:56.325Z,101702.63
2022-09-09T23:41:24.850Z,101722.28
2022-09-09T23:43:54.298Z,101752.94
2022-09-09T23:46:25.275Z,101784.25
2022-09-09T23:48:53.205Z,101773.50
2022-09-09T23:51:24.075Z,101706.56
2022-09-09T23:53:53.917Z,101779.06
2022-09-09T23:56:25.130Z,101786.03
2022-09-09T23:58:53.211Z,101777.13
